createdAt,value
2023-01-09T00:02:40.832Z,97364.03
2023-01-09T00:07:45.906Z,97355.03
2023-01-09T00:12:53.611Z,97342.56
2023-01-09T00:17:58.786Z,97354.97
2023-01-09T00:23:03.857Z,97350.94
2023-01-09T00:28:11.538Z,97338.56
2023-01-09T00:33:16.680Z,97329.88
2023-01-09T00:38:21.652Z,97327.81
2023-01-09T00:43:36.271Z,97320.00
2023-01-09T00:48:44.981Z,97320.72
2023-01-09T00:53:51.697Z,97314.09
2023-01-09T00:58:59.559Z,97305.09
2023-01-09T01:04:25.270Z,97302.94
2023-01-09T01:09:30.529Z,97296.72
2023-01-09T01:14:38.910Z,97283.31
2023-01-09T01:19:43.986Z,97278.53
2023-01-09T01:24:49.071Z,97265.03
2023-01-09T01:29:56.815Z,97253.81
2023-01-09T01:35:01.777Z,97261.06
2023-01-09T01:40:08.702Z,97250.53
2023-01-09T01:45:19.593Z,97251.97
2023-01-09T01:50:40.239Z,97241.53
2023-01-09T01:55:51.835Z,97227.41
2023-01-09T02:00:59.642Z,97237.72
2023-01-09T02:06:05.459Z,97213.91
2023-01-09T02:11:13.183Z,97212.13
2023-01-09T02:16:36.348Z,97201.22
2023-01-09T02:21:52.787Z,97187.66
2023-01-09T02:27:28.241Z,97185.81
2023-01-09T02:32:48.594Z,97172.09
2023-01-09T02:38:05.145Z,97172.69
2023-01-09T02:43:11.301Z,97150.03
2023-01-09T02:48:18.973Z,97155.66
2023-01-09T02:53:56.032Z,97153.16
2023-01-09T02:59:18.963Z,97138.59
2023-01-09T03:04:38.466Z,97154.59
2023-01-09T03:09:45.909Z,97147.16
2023-01-09T03:14:53.840Z,97151.47
2023-01-09T03:20:05.440Z,97147.69
2023-01-09T03:25:13.157Z,97153.56
2023-01-09T03:30:18.909Z,97148.91
2023-01-09T03:35:26.953Z,97140.97
2023-01-09T03:40:31.836Z,97143.41
2023-01-09T03:45:37.253Z,97126.97
2023-01-09T03:50:47.400Z,97134.22
2023-01-09T03:55:54.575Z,97125.88
2023-01-09T04:01:02.077Z,97120.19
2023-01-09T04:06:10.407Z,97112.25
2023-01-09T04:11:17.687Z,97104.47
2023-01-09T04:16:22.724Z,97086.50
2023-01-09T04:21:30.301Z,97097.28
2023-01-09T04:26:35.210Z,97085.56
2023-01-09T04:31:40.179Z,97081.63
2023-01-09T04:36:47.767Z,97065.34
2023-01-09T04:41:52.705Z,97060.19
2023-01-09T04:46:59.178Z,97063.47
2023-01-09T04:52:07.061Z,97052.94
2023-01-09T04:57:12.203Z,97067.97
2023-01-09T05:02:17.310Z,97068.31
2023-01-09T05:07:47.199Z,97076.50
2023-01-09T05:12:55.037Z,97073.09
2023-01-09T05:17:59.908Z,97078.06
2023-01-09T05:23:05.968Z,97058.75
2023-01-09T05:28:13.987Z,97060.91
2023-01-09T05:33:18.955Z,97056.22
2023-01-09T05:38:23.883Z,97053.97
2023-01-09T05:43:31.804Z,97053.00
2023-01-09T05:48:38.078Z,97047.91
2023-01-09T05:53:43.039Z,97024.75
2023-01-09T05:58:50.673Z,97016.38
2023-01-09T06:03:56.087Z,97019.03
2023-01-09T06:09:03.590Z,97011.31
2023-01-09T06:14:11.544Z,97015.59
2023-01-09T06:19:17.081Z,97019.25
2023-01-09T06:24:22.221Z,97029.66
2023-01-09T06:29:32.108Z,97023.66
2023-01-09T06:34:37.299Z,97033.72
2023-01-09T06:39:42.638Z,97029.72
2023-01-09T06:44:50.295Z,97029.88
2023-01-09T06:49:57.642Z,97043.34
2023-01-09T06:55:02.753Z,97060.09
2023-01-09T07:00:11.987Z,97059.28
2023-01-09T07:05:17.230Z,97048.22
2023-01-09T07:10:22.639Z,97058.47
2023-01-09T07:15:30.535Z,97065.16
2023-01-09T07:20:38.171Z,97066.56
2023-01-09T07:25:43.573Z,97063.16
2023-01-09T07:30:51.118Z,97057.59
2023-01-09T07:35:56.251Z,97071.59
2023-01-09T07:41:01.212Z,97059.47
2023-01-09T07:46:09.744Z,97050.50
2023-01-09T07:51:14.878Z,97069.25
2023-01-09T07:56:20.428Z,97070.22
2023-01-09T08:01:30.704Z,97080.56
2023-01-09T08:06:38.357Z,97072.28
2023-01-09T08:11:43.401Z,97077.00
2023-01-09T08:16:51.715Z,97081.06
2023-01-09T08:21:56.965Z,97086.44
2023-01-09T08:27:03.785Z,97088.59
2023-01-09T08:32:11.806Z,97086.09
2023-01-09T08:37:16.936Z,97102.13
2023-01-09T08:42:35.364Z,97102.13
2023-01-09T08:47:46.892Z,97111.47
2023-01-09T08:52:55.596Z,97117.22
2023-01-09T08:58:00.819Z,97120.78
2023-01-09T09:03:08.976Z,97123.41
2023-01-09T09:08:13.988Z,97112.84
2023-01-09T09:13:18.896Z,97120.63
2023-01-09T09:18:28.676Z,97123.66
2023-01-09T09:23:34.257Z,97130.38
2023-01-09T09:28:39.392Z,97137.78
2023-01-09T09:33:47.508Z,97144.13
2023-01-09T09:38:58.232Z,97147.06
2023-01-09T09:44:35.271Z,97158.38
2023-01-09T09:49:52.163Z,97155.88
2023-01-09T09:54:59.502Z,97163.59
2023-01-09T10:00:06.667Z,97156.56
2023-01-09T10:05:29.913Z,97156.69
2023-01-09T10:10:44.690Z,97158.69
2023-01-09T10:16:00.416Z,97161.53
2023-01-09T10:21:15.925Z,97170.97
2023-01-09T10:26:30.546Z,97175.50
2023-01-09T10:31:48.819Z,97183.78
2023-01-09T10:37:05.589Z,97193.44
2023-01-09T10:42:20.319Z,97204.31
2023-01-09T10:47:30.585Z,97214.75
2023-01-09T10:52:46.406Z,97228.47
2023-01-09T10:57:57.190Z,97218.03
2023-01-09T11:03:02.673Z,97225.38
2023-01-09T11:08:24.359Z,97230.56
2023-01-09T11:13:33.519Z,97240.47
2023-01-09T11:18:42.972Z,97229.72
2023-01-09T11:23:53.765Z,97249.03
2023-01-09T11:29:09.795Z,97249.69
2023-01-09T11:34:22.816Z,97249.13
2023-01-09T11:39:33.725Z,97247.91
2023-01-09T11:44:40.487Z,97254.50
2023-01-09T11:49:46.726Z,97258.38
2023-01-09T11:55:05.786Z,97248.78
2023-01-09T12:00:28.064Z,97244.69
2023-01-09T12:05:44.015Z,97243.88
2023-01-09T12:11:13.090Z,97244.00
2023-01-09T12:16:31.339Z,97236.97
2023-01-09T12:21:37.967Z,97260.09
2023-01-09T12:26:54.163Z,97277.44
2023-01-09T12:32:14.404Z,97270.50
2023-01-09T12:37:52.367Z,97258.94
2023-01-09T12:43:10.554Z,97261.72
2023-01-09T12:48:29.516Z,97295.91
2023-01-09T12:53:39.332Z,97308.88
2023-01-09T12:58:52.625Z,97297.13
2023-01-09T13:04:07.178Z,97309.13
2023-01-09T13:09:23.257Z,97319.69
2023-01-09T13:14:42.006Z,97325.72
2023-01-09T13:19:50.089Z,97318.56
2023-01-09T13:25:26.225Z,97332.09
2023-01-09T13:30:52.315Z,97334.91
2023-01-09T13:36:00.341Z,97312.72
2023-01-09T13:41:24.573Z,97321.63
2023-01-09T13:46:43.957Z,97337.34
2023-01-09T13:52:01.750Z,97358.44
2023-01-09T13:57:33.955Z,97362.84
2023-01-09T14:03:00.141Z,97368.03
2023-01-09T14:08:07.994Z,97376.44
2023-01-09T14:13:18.939Z,97396.53
2023-01-09T14:18:30.186Z,97394.28
2023-01-09T14:23:51.392Z,97395.94
2023-01-09T14:29:25.839Z,97393.16
2023-01-09T14:34:41.636Z,97397.66
2023-01-09T14:39:55.497Z,97409.19
2023-01-09T14:45:06.370Z,97423.53
2023-01-09T14:50:20.329Z,97430.88
2023-01-09T14:55:30.622Z,97429.75
2023-01-09T15:00:38.983Z,97439.41
2023-01-09T15:05:50.104Z,97448.13
2023-01-09T15:10:57.360Z,97441.44
2023-01-09T15:16:03.696Z,97446.09
2023-01-09T15:21:21.665Z,97445.47
2023-01-09T15:26:29.789Z,97456.38
2023-01-09T15:31:39.422Z,97452.19
2023-01-09T15:36:49.495Z,97456.25
2023-01-09T15:42:07.300Z,97451.75
2023-01-09T15:47:20.818Z,97455.94
2023-01-09T15:52:31.370Z,97460.63
2023-01-09T15:57:36.994Z,97469.66
2023-01-09T16:02:59.771Z,97471.66
2023-01-09T16:08:08.029Z,97481.47
2023-01-09T16:13:16.411Z,97494.03
2023-01-09T16:18:33.687Z,97493.91
2023-01-09T16:23:42.617Z,97488.25
2023-01-09T16:28:47.517Z,97488.69
2023-01-09T16:33:59.190Z,97497.28
2023-01-09T16:39:08.974Z,97494.97
2023-01-09T16:44:14.051Z,97497.28
2023-01-09T16:49:21.556Z,97497.06
2023-01-09T16:54:31.196Z,97512.22
2023-01-09T16:59:36.201Z,97519.59
2023-01-09T17:04:41.198Z,97533.81
2023-01-09T17:09:49.597Z,97545.00
2023-01-09T17:14:58.636Z,97546.38
2023-01-09T17:20:07.636Z,97550.72
2023-01-09T17:25:29.848Z,97544.50
2023-01-09T17:30:36.546Z,97550.72
2023-01-09T17:35:41.906Z,97568.63
2023-01-09T17:40:49.457Z,97577.16
2023-01-09T17:45:56.743Z,97579.13
2023-01-09T17:51:02.642Z,97602.44
2023-01-09T17:56:18.338Z,97594.56
2023-01-09T18:01:27.329Z,97598.41
2023-01-09T18:06:32.415Z,97601.66
2023-01-09T18:11:44.050Z,97616.38
2023-01-09T18:16:48.953Z,97623.03
2023-01-09T18:21:54.436Z,97611.00
2023-01-09T18:27:02.034Z,97619.84
2023-01-09T18:32:08.388Z,97613.81
2023-01-09T18:37:13.521Z,97609.88
2023-01-09T18:42:23.056Z,97615.34
2023-01-09T18:47:28.026Z,97608.03
2023-01-09T18:52:36.119Z,97599.69
2023-01-09T18:57:46.244Z,97614.16
2023-01-09T19:02:51.451Z,97625.72
2023-01-09T19:07:57.420Z,97637.88
2023-01-09T19:13:07.281Z,97643.25
2023-01-09T19:18:12.813Z,97649.69
2023-01-09T19:23:19.678Z,97668.56
2023-01-09T19:28:28.527Z,97668.69
2023-01-09T19:33:33.566Z,97679.91
2023-01-09T19:38:39.380Z,97690.94
2023-01-09T19:43:50.590Z,97693.56
2023-01-09T19:48:59.240Z,97693.81
2023-01-09T19:54:07.381Z,97702.88
2023-01-09T19:59:18.575Z,97711.19
2023-01-09T20:04:25.170Z,97720.84
2023-01-09T20:09:30.419Z,97728.25
2023-01-09T20:14:38.492Z,97756.63
2023-01-09T20:19:46.843Z,97757.09
2023-01-09T20:24:52.063Z,97761.25
2023-01-09T20:29:59.859Z,97765.81
2023-01-09T20:35:05.118Z,97768.59
2023-01-09T20:40:11.649Z,97781.38
2023-01-09T20:45:19.415Z,97782.69
2023-01-09T20:50:25.260Z,97781.63
2023-01-09T20:55:33.437Z,97789.56
2023-01-09T21:00:41.910Z,97800.09
2023-01-09T21:05:48.941Z,97792.50
2023-01-09T21:10:58.736Z,97793.19
2023-01-09T21:16:10.003Z,97803.38
2023-01-09T21:21:16.938Z,97812.09
2023-01-09T21:26:24.911Z,97821.13
2023-01-09T21:31:36.271Z,97827.81
2023-01-09T21:36:41.872Z,97836.41
2023-01-09T21:41:59.955Z,97852.56
2023-01-09T21:47:07.661Z,97859.16
2023-01-09T21:52:13.385Z,97855.72
2023-01-09T21:57:20.801Z,97854.38
2023-01-09T22:02:28.779Z,97838.34
2023-01-09T22:07:33.935Z,97838.94
2023-01-09T22:12:59.354Z,97840.81
2023-01-09T22:18:07.152Z,97852.34
2023-01-09T22:23:13.187Z,97855.78
2023-01-09T22:28:25.579Z,97875.16
2023-01-09T22:33:34.409Z,97878.09
2023-01-09T22:38:40.109Z,97877.00
2023-01-09T22:43:45.191Z,97885.69
2023-01-09T22:48:52.794Z,97891.97
2023-01-09T22:53:57.998Z,97900.69
2023-01-09T22:59:02.985Z,97904.00
2023-01-09T23:04:16.023Z,97906.75
2023-01-09T23:09:20.934Z,97909.34
2023-01-09T23:14:25.901Z,97909.19
2023-01-09T23:19:33.883Z,97928.00
2023-01-09T23:24:40.599Z,97934.38
2023-01-09T23:29:47.544Z,97946.03
2023-01-09T23:34:56.117Z,97951.22
2023-01-09T23:40:03.342Z,97955.78
2023-01-09T23:45:09.735Z,97953.06
2023-01-09T23:50:19.888Z,97963.31
2023-01-09T23:55:28.405Z,97974.44
